sensor_id;sensor_type;location;lat;lon;timestamp;P1;durP1;ratioP1;P2;durP2;ratioP2
37823;SDS011;23667;43.246;26.576;2022-09-09T12:33:10;5.15;;;0.80;;
37823;SDS011;23667;43.246;26.576;2022-09-09T12:35:38;8.95;;;0.90;;
37823;SDS011;23667;43.246;26.576;2022-09-09T12:38:05;6.68;;;0.93;;
37823;SDS011;23667;43.246;26.576;2022-09-09T12:40:38;8.40;;;0.90;;
37823;SDS011;23667;43.246;26.576;2022-09-09T12:43:17;5.57;;;1.00;;
37823;SDS011;23667;43.246;26.576;2022-09-09T12:45:46;4.22;;;1.00;;
37823;SDS011;23667;43.246;26.576;2022-09-09T12:48:14;12.35;;;1.50;;
37823;SDS011;23667;43.246;26.576;2022-09-09T12:50:46;9.15;;;1.08;;
37823;SDS011;23667;43.246;26.576;2022-09-09T12:53:22;6.18;;;1.15;;
37823;SDS011;23667;43.246;26.576;2022-09-09T12:55:53;5.78;;;0.82;;
37823;SDS011;23667;43.246;26.576;2022-09-09T12:58:22;5.82;;;1.10;;
37823;SDS011;23667;43.246;26.576;2022-09-09T13:00:48;9.10;;;1.00;;
37823;SDS011;23667;43.246;26.576;2022-09-09T13:03:17;7.68;;;1.13;;
37823;SDS011;23667;43.246;26.576;2022-09-09T13:05:45;5.18;;;1.00;;
37823;SDS011;23667;43.246;26.576;2022-09-09T13:08:12;9.82;;;1.55;;
37823;SDS011;23667;43.246;26.576;2022-09-09T13:13:17;3.20;;;0.88;;
37823;SDS011;23667;43.246;26.576;2022-09-09T13:15:53;3.55;;;0.73;;
37823;SDS011;23667;43.246;26.576;2022-09-09T13:18:25;9.38;;;1.20;;
37823;SDS011;23667;43.246;26.576;2022-09-09T13:20:56;11.05;;;1.10;;
37823;SDS011;23667;43.246;26.576;2022-09-09T13:23:23;5.63;;;1.23;;
37823;SDS011;23667;43.246;26.576;2022-09-09T13:25:53;3.35;;;0.98;;
37823;SDS011;23667;43.246;26.576;2022-09-09T13:28:26;7.32;;;1.00;;
37823;SDS011;23667;43.246;26.576;2022-09-09T13:30:59;5.03;;;0.90;;
37823;SDS011;23667;43.246;26.576;2022-09-09T13:33:44;4.82;;;0.90;;
37823;SDS011;23667;43.246;26.576;2022-09-09T13:36:10;7.50;;;1.10;;
37823;SDS011;23667;43.246;26.576;2022-09-09T13:38:40;8.02;;;1.00;;
37823;SDS011;23667;43.246;26.576;2022-09-09T13:41:22;6.95;;;0.95;;
37823;SDS011;23667;43.246;26.576;2022-09-09T13:43:50;6.05;;;1.30;;
37823;SDS011;23667;43.246;26.576;2022-09-09T13:49:18;6.93;;;1.08;;
37823;SDS011;23667;43.246;26.576;2022-09-09T13:51:51;9.50;;;0.98;;
37823;SDS011;23667;43.246;26.576;2022-09-09T13:54:19;10.90;;;1.15;;
37823;SDS011;23667;43.246;26.576;2022-09-09T13:56:46;13.35;;;1.05;;
37823;SDS011;23667;43.246;26.576;2022-09-09T13:59:13;9.43;;;1.10;;
37823;SDS011;23667;43.246;26.576;2022-09-09T14:01:40;3.88;;;1.38;;
37823;SDS011;23667;43.246;26.576;2022-09-09T14:04:06;5.35;;;1.17;;
37823;SDS011;23667;43.246;26.576;2022-09-09T14:06:34;4.70;;;1.27;;
37823;SDS011;23667;43.246;26.576;2022-09-09T14:09:02;6.70;;;1.00;;
37823;SDS011;23667;43.246;26.576;2022-09-09T14:11:28;5.68;;;1.85;;
37823;SDS011;23667;43.246;26.576;2022-09-09T14:13:53;9.93;;;1.52;;
37823;SDS011;23667;43.246;26.576;2022-09-09T14:16:19;9.02;;;1.15;;
37823;SDS011;23667;43.246;26.576;2022-09-09T14:18:46;4.65;;;0.90;;
37823;SDS011;23667;43.246;26.576;2022-09-09T14:21:12;4.47;;;0.80;;
37823;SDS011;23667;43.246;26.576;2022-09-09T14:23:39;8.48;;;1.13;;
37823;SDS011;23667;43.246;26.576;2022-09-09T14:26:05;6.63;;;1.00;;
37823;SDS011;23667;43.246;26.576;2022-09-09T14:28:31;15.40;;;1.08;;
37823;SDS011;23667;43.246;26.576;2022-09-09T14:31:01;4.43;;;1.40;;
37823;SDS011;23667;43.246;26.576;2022-09-09T14:33:28;2.67;;;1.02;;
37823;SDS011;23667;43.246;26.576;2022-09-09T14:35:55;9.43;;;0.90;;
37823;SDS011;23667;43.246;26.576;2022-09-09T14:38:28;7.50;;;1.00;;
37823;SDS011;23667;43.246;26.576;2022-09-09T14:40:55;4.40;;;0.90;;
37823;SDS011;23667;43.246;26.576;2022-09-09T14:43:21;2.83;;;1.10;;
37823;SDS011;23667;43.246;26.576;2022-09-09T14:45:47;7.22;;;1.00;;
37823;SDS011;23667;43.246;26.576;2022-09-09T14:48:16;4.40;;;0.85;;
37823;SDS011;23667;43.246;26.576;2022-09-09T14:50:42;14.02;;;1.10;;
37823;SDS011;23667;43.246;26.576;2022-09-09T14:53:08;15.07;;;1.33;;
37823;SDS011;23667;43.246;26.576;2022-09-09T14:55:34;2.47;;;1.00;;
37823;SDS011;23667;43.246;26.576;2022-09-09T14:58:00;6.50;;;1.10;;
37823;SDS011;23667;43.246;26.576;2022-09-09T15:00:26;6.63;;;0.95;;
37823;SDS011;23667;43.246;26.576;2022-09-09T15:02:52;7.55;;;0.90;;
37823;SDS011;23667;43.246;26.576;2022-09-09T15:05:18;5.38;;;0.88;;
37823;SDS011;23667;43.246;26.576;2022-09-09T15:07:44;6.40;;;0.90;;
37823;SDS011;23667;43.246;26.576;2022-09-09T15:10:13;3.15;;;1.30;;
37823;SDS011;23667;43.246;26.576;2022-09-09T15:12:39;11.20;;;1.17;;
37823;SDS011;23667;43.246;26.576;2022-09-09T15:15:06;8.82;;;1.20;;
37823;SDS011;23667;43.246;26.576;2022-09-09T15:17:32;4.55;;;0.90;;
37823;SDS011;23667;43.246;26.576;2022-09-09T15:19:58;9.02;;;1.13;;
37823;SDS011;23667;43.246;26.576;2022-09-09T15:22:24;5.65;;;1.50;;
37823;SDS011;23667;43.246;26.576;2022-09-09T15:24:50;11.45;;;1.33;;
37823;SDS011;23667;43.246;26.576;2022-09-09T15:27:15;4.20;;;1.10;;
37823;SDS011;23667;43.246;26.576;2022-09-09T15:29:41;8.38;;;1.27;;
37823;SDS011;23667;43.246;26.576;2022-09-09T15:32:07;8.68;;;1.60;;
37823;SDS011;23667;43.246;26.576;2022-09-09T15:34:33;9.30;;;1.40;;
37823;SDS011;23667;43.246;26.576;2022-09-09T15:36:59;20.20;;;1.75;;
37823;SDS011;23667;43.246;26.576;2022-09-09T15:39:25;9.02;;;1.63;;
37823;SDS011;23667;43.246;26.576;2022-09-09T15:41:50;11.43;;;1.70;;
37823;SDS011;23667;43.246;26.576;2022-09-09T15:44:16;10.10;;;1.40;;
37823;SDS011;23667;43.246;26.576;2022-09-09T15:46:46;12.57;;;1.30;;
37823;SDS011;23667;43.246;26.576;2022-09-09T15:49:19;7.07;;;1.45;;
37823;SDS011;23667;43.246;26.576;2022-09-09T15:51:54;4.07;;;1.20;;
37823;SDS011;23667;43.246;26.576;2022-09-09T15:54:23;5.30;;;1.20;;
37823;SDS011;23667;43.246;26.576;2022-09-09T15:56:53;15.35;;;2.30;;
37823;SDS011;23667;43.246;26.576;2022-09-09T15:59:21;6.07;;;1.15;;
37823;SDS011;23667;43.246;26.576;2022-09-09T16:01:50;6.45;;;1.45;;
37823;SDS011;23667;43.246;26.576;2022-09-09T16:04:19;3.65;;;1.05;;
37823;SDS011;23667;43.246;26.576;2022-09-09T16:09:16;6.97;;;0.98;;
37823;SDS011;23667;43.246;26.576;2022-09-09T16:11:42;6.63;;;1.25;;
37823;SDS011;23667;43.246;26.576;2022-09-09T16:14:08;4.78;;;1.17;;
37823;SDS011;23667;43.246;26.576;2022-09-09T16:16:34;4.68;;;1.00;;
37823;SDS011;23667;43.246;26.576;2022-09-09T16:19:02;5.93;;;1.48;;
37823;SDS011;23667;43.246;26.576;2022-09-09T16:21:32;4.25;;;1.00;;
37823;SDS011;23667;43.246;26.576;2022-09-09T16:24:00;10.02;;;1.10;;
37823;SDS011;23667;43.246;26.576;2022-09-09T16:26:28;13.70;;;1.73;;
37823;SDS011;23667;43.246;26.576;2022-09-09T16:28:55;6.07;;;1.20;;
37823;SDS011;23667;43.246;26.576;2022-09-09T16:31:23;2.47;;;1.08;;
37823;SDS011;23667;43.246;26.576;2022-09-09T16:33:49;3.88;;;1.90;;
37823;SDS011;23667;43.246;26.576;2022-09-09T16:36:17;3.97;;;1.52;;
37823;SDS011;23667;43.246;26.576;2022-09-09T16:38:47;12.52;;;2.22;;
37823;SDS011;23667;43.246;26.576;2022-09-09T16:41:14;5.53;;;1.55;;
37823;SDS011;23667;43.246;26.576;2022-09-09T16:43:39;12.32;;;1.45;;
37823;SDS011;23667;43.246;26.576;2022-09-09T16:46:16;6.22;;;2.25;;
37823;SDS011;23667;43.246;26.576;2022-09-09T16:48:43;2.22;;;0.80;;
37823;SDS011;23667;43.246;26.576;2022-09-09T16:51:14;3.33;;;1.25;;
37823;SDS011;23667;43.246;26.576;2022-09-09T16:53:43;4.57;;;1.20;;
37823;SDS011;23667;43.246;26.576;2022-09-09T16:56:10;6.60;;;1.05;;
37823;SDS011;23667;43.246;26.576;2022-09-09T16:58:38;4.88;;;1.25;;
37823;SDS011;23667;43.246;26.576;2022-09-09T17:01:04;3.45;;;1.05;;
37823;SDS011;23667;43.246;26.576;2022-09-09T17:03:30;5.10;;;0.98;;
37823;SDS011;23667;43.246;26.576;2022-09-09T17:05:56;7.00;;;1.55;;
37823;SDS011;23667;43.246;26.576;2022-09-09T17:08:23;6.43;;;1.10;;
37823;SDS011;23667;43.246;26.576;2022-09-09T17:10:49;4.70;;;1.27;;
37823;SDS011;23667;43.246;26.576;2022-09-09T17:13:15;2.97;;;1.10;;
37823;SDS011;23667;43.246;26.576;2022-09-09T17:15:44;5.45;;;1.30;;
37823;SDS011;23667;43.246;26.576;2022-09-09T17:18:11;7.43;;;2.00;;
37823;SDS011;23667;43.246;26.576;2022-09-09T17:20:38;9.82;;;1.60;;
37823;SDS011;23667;43.246;26.576;2022-09-09T17:23:05;6.25;;;1.38;;
37823;SDS011;23667;43.246;26.576;2022-09-09T17:25:31;5.10;;;1.30;;
37823;SDS011;23667;43.246;26.576;2022-09-09T17:27:57;6.53;;;0.77;;
37823;SDS011;23667;43.246;26.576;2022-09-09T17:30:23;4.18;;;1.08;;
37823;SDS011;23667;43.246;26.576;2022-09-09T17:32:49;12.23;;;1.67;;
37823;SDS011;23667;43.246;26.576;2022-09-09T17:35:15;5.95;;;0.75;;
37823;SDS011;23667;43.246;26.576;2022-09-09T17:37:40;1.33;;;0.60;;
37823;SDS011;23667;43.246;26.576;2022-09-09T17:40:06;3.72;;;0.60;;
37823;SDS011;23667;43.246;26.576;2022-09-09T17:42:33;6.75;;;0.80;;
37823;SDS011;23667;43.246;26.576;2022-09-09T17:44:59;5.07;;;0.77;;
37823;SDS011;23667;43.246;26.576;2022-09-09T17:47:24;3.42;;;0.52;;
37823;SDS011;23667;43.246;26.576;2022-09-09T17:49:50;3.53;;;0.45;;
37823;SDS011;23667;43.246;26.576;2022-09-09T17:52:16;2.63;;;0.40;;
37823;SDS011;23667;43.246;26.576;2022-09-09T17:54:41;2.42;;;0.57;;
37823;SDS011;23667;43.246;26.576;2022-09-09T17:57:07;2.88;;;0.40;;
37823;SDS011;23667;43.246;26.576;2022-09-09T17:59:33;2.78;;;0.40;;
37823;SDS011;23667;43.246;26.576;2022-09-09T18:01:58;1.55;;;0.40;;
37823;SDS011;23667;43.246;26.576;2022-09-09T18:04:24;4.05;;;0.70;;
37823;SDS011;23667;43.246;26.576;2022-09-09T18:06:51;5.13;;;0.98;;
37823;SDS011;23667;43.246;26.576;2022-09-09T18:09:21;2.72;;;0.35;;
37823;SDS011;23667;43.246;26.576;2022-09-09T18:11:50;2.80;;;0.60;;
37823;SDS011;23667;43.246;26.576;2022-09-09T18:14:21;5.28;;;0.50;;
37823;SDS011;23667;43.246;26.576;2022-09-09T18:16:49;3.35;;;0.50;;
37823;SDS011;23667;43.246;26.576;2022-09-09T18:19:17;2.15;;;0.40;;
37823;SDS011;23667;43.246;26.576;2022-09-09T18:21:44;3.45;;;0.40;;
37823;SDS011;23667;43.246;26.576;2022-09-09T18:24:10;1.52;;;0.43;;
37823;SDS011;23667;43.246;26.576;2022-09-09T18:26:38;1.75;;;0.40;;
37823;SDS011;23667;43.246;26.576;2022-09-09T18:29:05;2.03;;;0.55;;
37823;SDS011;23667;43.246;26.576;2022-09-09T18:31:33;5.03;;;0.65;;
37823;SDS011;23667;43.246;26.576;2022-09-09T18:34:00;5.93;;;0.40;;
37823;SDS011;23667;43.246;26.576;2022-09-09T18:36:32;2.15;;;0.40;;
37823;SDS011;23667;43.246;26.576;2022-09-09T18:38:59;4.57;;;0.60;;
37823;SDS011;23667;43.246;26.576;2022-09-09T18:41:28;2.95;;;0.40;;
37823;SDS011;23667;43.246;26.576;2022-09-09T18:43:57;4.30;;;0.60;;
37823;SDS011;23667;43.246;26.576;2022-09-09T18:46:24;4.60;;;0.40;;
37823;SDS011;23667;43.246;26.576;2022-09-09T18:48:51;3.80;;;0.50;;
37823;SDS011;23667;43.246;26.576;2022-09-09T18:51:18;5.63;;;0.50;;
37823;SDS011;23667;43.246;26.576;2022-09-09T18:53:49;2.17;;;0.70;;
37823;SDS011;23667;43.246;26.576;2022-09-09T18:56:19;4.07;;;0.50;;
37823;SDS011;23667;43.246;26.576;2022-09-09T18:58:45;4.10;;;0.50;;
37823;SDS011;23667;43.246;26.576;2022-09-09T19:01:13;6.97;;;0.50;;
37823;SDS011;23667;43.246;26.576;2022-09-09T19:03:40;3.78;;;0.45;;
37823;SDS011;23667;43.246;26.576;2022-09-09T19:06:07;2.20;;;0.40;;
37823;SDS011;23667;43.246;26.576;2022-09-09T19:08:42;4.90;;;0.50;;
37823;SDS011;23667;43.246;26.576;2022-09-09T19:11:11;1.73;;;0.47;;
37823;SDS011;23667;43.246;26.576;2022-09-09T19:13:40;2.35;;;0.60;;
37823;SDS011;23667;43.246;26.576;2022-09-09T19:16:08;1.73;;;0.57;;
37823;SDS011;23667;43.246;26.576;2022-09-09T19:18:35;5.30;;;0.40;;
37823;SDS011;23667;43.246;26.576;2022-09-09T19:23:40;2.00;;;0.60;;
37823;SDS011;23667;43.246;26.576;2022-09-09T19:26:06;1.70;;;0.50;;
37823;SDS011;23667;43.246;26.576;2022-09-09T19:28:33;3.63;;;0.40;;
37823;SDS011;23667;43.246;26.576;2022-09-09T19:31:03;1.55;;;0.57;;
37823;SDS011;23667;43.246;26.576;2022-09-09T19:33:31;2.35;;;0.50;;
37823;SDS011;23667;43.246;26.576;2022-09-09T19:35:58;1.40;;;0.50;;
37823;SDS011;23667;43.246;26.576;2022-09-09T19:38:29;3.67;;;0.45;;
37823;SDS011;23667;43.246;26.576;2022-09-09T19:41:01;0.90;;;0.30;;
37823;SDS011;23667;43.246;26.576;2022-09-09T19:43:29;2.63;;;0.40;;
37823;SDS011;23667;43.246;26.576;2022-09-09T19:45:58;2.65;;;0.50;;
37823;SDS011;23667;43.246;26.576;2022-09-09T19:48:26;3.63;;;0.40;;
37823;SDS011;23667;43.246;26.576;2022-09-09T19:50:55;4.50;;;0.50;;
37823;SDS011;23667;43.246;26.576;2022-09-09T19:53:26;2.90;;;0.60;;
37823;SDS011;23667;43.246;26.576;2022-09-09T19:55:51;3.28;;;0.70;;
37823;SDS011;23667;43.246;26.576;2022-09-09T19:58:17;3.08;;;0.70;;
37823;SDS011;23667;43.246;26.576;2022-09-09T20:00:43;4.03;;;0.70;;
37823;SDS011;23667;43.246;26.576;2022-09-09T20:03:09;5.22;;;0.60;;
37823;SDS011;23667;43.246;26.576;2022-09-09T20:05:34;5.07;;;0.60;;
37823;SDS011;23667;43.246;26.576;2022-09-09T20:08:00;2.15;;;0.50;;
37823;SDS011;23667;43.246;26.576;2022-09-09T20:10:26;8.85;;;0.65;;
37823;SDS011;23667;43.246;26.576;2022-09-09T20:12:51;6.57;;;1.10;;
37823;SDS011;23667;43.246;26.576;2022-09-09T20:15:17;1.95;;;0.50;;
37823;SDS011;23667;43.246;26.576;2022-09-09T20:17:42;1.70;;;0.50;;
37823;SDS011;23667;43.246;26.576;2022-09-09T20:20:08;2.35;;;0.50;;
37823;SDS011;23667;43.246;26.576;2022-09-09T20:22:33;1.30;;;0.57;;
37823;SDS011;23667;43.246;26.576;2022-09-09T20:24:59;6.13;;;0.70;;
37823;SDS011;23667;43.246;26.576;2022-09-09T20:27:28;6.55;;;0.75;;
37823;SDS011;23667;43.246;26.576;2022-09-09T20:29:57;1.85;;;0.52;;
37823;SDS011;23667;43.246;26.576;2022-09-09T20:32:23;7.85;;;1.42;;
37823;SDS011;23667;43.246;26.576;2022-09-09T20:34:49;3.72;;;0.80;;
37823;SDS011;23667;43.246;26.576;2022-09-09T20:37:14;3.42;;;0.80;;
37823;SDS011;23667;43.246;26.576;2022-09-09T20:39:40;6.47;;;1.38;;
37823;SDS011;23667;43.246;26.576;2022-09-09T20:42:06;3.88;;;0.70;;
37823;SDS011;23667;43.246;26.576;2022-09-09T20:44:32;4.80;;;0.75;;
37823;SDS011;23667;43.246;26.576;2022-09-09T20:46:57;2.15;;;0.63;;
37823;SDS011;23667;43.246;26.576;2022-09-09T20:49:30;1.50;;;0.60;;
37823;SDS011;23667;43.246;26.576;2022-09-09T20:51:59;1.95;;;0.68;;
37823;SDS011;23667;43.246;26.576;2022-09-09T20:54:26;4.75;;;1.23;;
37823;SDS011;23667;43.246;26.576;2022-09-09T20:56:54;6.88;;;1.20;;
37823;SDS011;23667;43.246;26.576;2022-09-09T20:59:21;4.10;;;0.82;;
37823;SDS011;23667;43.246;26.576;2022-09-09T21:01:49;5.25;;;1.25;;
37823;SDS011;23667;43.246;26.576;2022-09-09T21:04:15;4.32;;;0.70;;
37823;SDS011;23667;43.246;26.576;2022-09-09T21:06:43;3.45;;;0.70;;
37823;SDS011;23667;43.246;26.576;2022-09-09T21:09:09;1.90;;;0.63;;
37823;SDS011;23667;43.246;26.576;2022-09-09T21:11:34;3.83;;;0.65;;
37823;SDS011;23667;43.246;26.576;2022-09-09T21:14:00;4.00;;;0.77;;
37823;SDS011;23667;43.246;26.576;2022-09-09T21:16:27;3.50;;;0.75;;
37823;SDS011;23667;43.246;26.576;2022-09-09T21:18:52;4.05;;;1.35;;
37823;SDS011;23667;43.246;26.576;2022-09-09T21:21:19;3.20;;;0.90;;
37823;SDS011;23667;43.246;26.576;2022-09-09T21:23:45;3.13;;;0.70;;
37823;SDS011;23667;43.246;26.576;2022-09-09T21:26:14;2.97;;;0.55;;
37823;SDS011;23667;43.246;26.576;2022-09-09T21:28:39;1.67;;;0.60;;
37823;SDS011;23667;43.246;26.576;2022-09-09T21:31:05;2.25;;;0.90;;
37823;SDS011;23667;43.246;26.576;2022-09-09T21:33:31;3.90;;;0.80;;
37823;SDS011;23667;43.246;26.576;2022-09-09T21:36:02;3.80;;;0.88;;
37823;SDS011;23667;43.246;26.576;2022-09-09T21:38:31;5.38;;;0.90;;
37823;SDS011;23667;43.246;26.576;2022-09-09T21:41:01;1.58;;;0.73;;
37823;SDS011;23667;43.246;26.576;2022-09-09T21:45:56;2.42;;;0.77;;
37823;SDS011;23667;43.246;26.576;2022-09-09T21:48:22;4.05;;;0.95;;
37823;SDS011;23667;43.246;26.576;2022-09-09T21:50:50;3.13;;;0.90;;
37823;SDS011;23667;43.246;26.576;2022-09-09T21:53:16;2.70;;;0.70;;
37823;SDS011;23667;43.246;26.576;2022-09-09T21:55:44;2.97;;;0.70;;
37823;SDS011;23667;43.246;26.576;2022-09-09T21:58:12;3.75;;;1.08;;
37823;SDS011;23667;43.246;26.576;2022-09-09T22:00:43;1.77;;;0.80;;
37823;SDS011;23667;43.246;26.576;2022-09-09T22:03:10;1.60;;;0.93;;
37823;SDS011;23667;43.246;26.576;2022-09-09T22:05:40;3.70;;;0.73;;
37823;SDS011;23667;43.246;26.576;2022-09-09T22:08:08;3.88;;;1.15;;
37823;SDS011;23667;43.246;26.576;2022-09-09T22:10:35;8.57;;;1.52;;
37823;SDS011;23667;43.246;26.576;2022-09-09T22:13:03;5.53;;;1.02;;
37823;SDS011;23667;43.246;26.576;2022-09-09T22:15:28;3.70;;;1.02;;
37823;SDS011;23667;43.246;26.576;2022-09-09T22:17:55;3.70;;;1.48;;
37823;SDS011;23667;43.246;26.576;2022-09-09T22:20:20;5.30;;;1.08;;
37823;SDS011;23667;43.246;26.576;2022-09-09T22:22:46;3.83;;;0.98;;
37823;SDS011;23667;43.246;26.576;2022-09-09T22:25:11;6.43;;;1.60;;
37823;SDS011;23667;43.246;26.576;2022-09-09T22:27:37;3.38;;;1.38;;
37823;SDS011;23667;43.246;26.576;2022-09-09T22:30:02;3.78;;;1.50;;
37823;SDS011;23667;43.246;26.576;2022-09-09T22:32:28;6.40;;;1.20;;
37823;SDS011;23667;43.246;26.576;2022-09-09T22:34:54;6.80;;;1.13;;
37823;SDS011;23667;43.246;26.576;2022-09-09T22:37:19;5.25;;;1.23;;
37823;SDS011;23667;43.246;26.576;2022-09-09T22:39:46;3.35;;;1.10;;
37823;SDS011;23667;43.246;26.576;2022-09-09T22:42:13;6.90;;;1.48;;
37823;SDS011;23667;43.246;26.576;2022-09-09T22:44:39;1.83;;;0.88;;
37823;SDS011;23667;43.246;26.576;2022-09-09T22:47:05;1.70;;;0.90;;
37823;SDS011;23667;43.246;26.576;2022-09-09T22:49:30;5.72;;;1.08;;
37823;SDS011;23667;43.246;26.576;2022-09-09T22:51:56;3.88;;;0.90;;
37823;SDS011;23667;43.246;26.576;2022-09-09T22:54:21;4.38;;;1.30;;
37823;SDS011;23667;43.246;26.576;2022-09-09T22:56:48;2.58;;;1.20;;
37823;SDS011;23667;43.246;26.576;2022-09-09T22:59:14;1.88;;;1.00;;
37823;SDS011;23667;43.246;26.576;2022-09-09T23:01:40;3.75;;;0.90;;
37823;SDS011;23667;43.246;26.576;2022-09-09T23:04:06;5.75;;;1.27;;
37823;SDS011;23667;43.246;26.576;2022-09-09T23:06:32;3.97;;;1.25;;
37823;SDS011;23667;43.246;26.576;2022-09-09T23:09:00;1.70;;;0.90;;
37823;SDS011;23667;43.246;26.576;2022-09-09T23:11:28;3.38;;;1.00;;
37823;SDS011;23667;43.246;26.576;2022-09-09T23:13:57;3.03;;;1.08;;
37823;SDS011;23667;43.246;26.576;2022-09-09T23:16:29;5.20;;;1.30;;
37823;SDS011;23667;43.246;26.576;2022-09-09T23:19:02;4.47;;;1.08;;
37823;SDS011;23667;43.246;26.576;2022-09-09T23:21:29;4.20;;;1.10;;
37823;SDS011;23667;43.246;26.576;2022-09-09T23:23:56;5.97;;;1.05;;
37823;SDS011;23667;43.246;26.576;2022-09-09T23:26:23;2.17;;;1.05;;
37823;SDS011;23667;43.246;26.576;2022-09-09T23:28:50;2.40;;;1.17;;
37823;SDS011;23667;43.246;26.576;2022-09-09T23:31:20;4.13;;;1.20;;
37823;SDS011;23667;43.246;26.576;2022-09-09T23:33:46;4.35;;;1.30;;
37823;SDS011;23667;43.246;26.576;2022-09-09T23:36:14;5.10;;;1.00;;
37823;SDS011;23667;43.246;26.576;2022-09-09T23:38:41;2.50;;;1.55;;
37823;SDS011;23667;43.246;26.576;2022-09-09T23:41:09;3.58;;;1.40;;
37823;SDS011;23667;43.246;26.576;2022-09-09T23:43:36;3.92;;;1.30;;
37823;SDS011;23667;43.246;26.576;2022-09-09T23:46:05;5.32;;;1.77;;
37823;SDS011;23667;43.246;26.576;2022-09-09T23:48:32;3.97;;;1.58;;
37823;SDS011;23667;43.246;26.576;2022-09-09T23:51:01;5.88;;;1.27;;
37823;SDS011;23667;43.246;26.576;2022-09-09T23:53:27;9.27;;;1.67;;
37823;SDS011;23667;43.246;26.576;2022-09-09T23:55:53;3.75;;;1.33;;
37823;SDS011;23667;43.246;26.576;2022-09-09T23:58:18;1.73;;;1.17;;
